createdAt,value
2022-12-12T00:02:15.401Z,101050.34
2022-12-12T00:04:41.994Z,101044.72
2022-12-12T00:07:08.477Z,101047.25
2022-12-12T00:09:35.016Z,101057.22
2022-12-12T00:12:01.572Z,101057.09
2022-12-12T00:14:28.266Z,101049.09
2022-12-12T00:16:54.740Z,101053.56
2022-12-12T00:19:21.303Z,101052.59
2022-12-12T00:21:47.835Z,101056.94
2022-12-12T00:24:14.407Z,101049.75
2022-12-12T00:26:40.976Z,101056.38
2022-12-12T00:29:07.575Z,101064.13
2022-12-12T00:31:34.209Z,101058.50
2022-12-12T00:34:00.759Z,101055.69
2022-12-12T00:36:31.494Z,101055.84
2022-12-12T00:38:59.017Z,101056.78
2022-12-12T00:41:26.366Z,101053.00
2022-12-12T00:43:52.923Z,101042.47
2022-12-12T00:46:22.245Z,101044.16
2022-12-12T00:48:48.998Z,101051.16
2022-12-12T00:51:21.271Z,101054.41
2022-12-12T00:53:49.135Z,101049.91
2022-12-12T00:56:17.425Z,101058.47
2022-12-12T00:58:44.078Z,101054.84
2022-12-12T01:01:12.719Z,101060.28
2022-12-12T01:03:40.795Z,101056.22
2022-12-12T01:06:08.778Z,101055.94
2022-12-12T01:08:35.336Z,101053.41
2022-12-12T01:11:02.258Z,101064.91
2022-12-12T01:13:28.973Z,101056.06
2022-12-12T01:15:55.773Z,101060.59
2022-12-12T01:18:22.332Z,101058.59
2022-12-12T01:20:48.877Z,101056.06
2022-12-12T01:23:15.750Z,101047.81
2022-12-12T01:25:42.441Z,101061.81
2022-12-12T01:28:09.124Z,101050.19
2022-12-12T01:30:36.047Z,101052.56
2022-12-12T01:33:03.872Z,101051.16
2022-12-12T01:35:31.833Z,101054.78
2022-12-12T01:37:58.375Z,101053.00
2022-12-12T01:40:28.029Z,101054.38
2022-12-12T01:42:55.033Z,101059.56
2022-12-12T01:45:58.867Z,101058.84
2022-12-12T01:48:30.397Z,101051.97
2022-12-12T01:51:01.835Z,101059.56
2022-12-12T01:53:31.597Z,101064.91
2022-12-12T01:55:58.977Z,101058.13
2022-12-12T01:58:26.262Z,101062.75
2022-12-12T02:00:52.874Z,101067.69
2022-12-12T02:03:19.580Z,101063.94
2022-12-12T02:06:00.047Z,101066.03
2022-12-12T02:08:27.245Z,101057.75
2022-12-12T02:10:53.892Z,101061.16
2022-12-12T02:13:24.377Z,101065.22
2022-12-12T02:15:59.950Z,101060.44
2022-12-12T02:19:06.718Z,101065.63
2022-12-12T02:21:49.850Z,101061.00
2022-12-12T02:24:35.336Z,101061.41
2022-12-12T02:27:23.468Z,101062.25
2022-12-12T02:30:10.711Z,101064.91
2022-12-12T02:33:28.304Z,101066.91
2022-12-12T02:35:54.787Z,101062.41
2022-12-12T02:38:53.501Z,101058.34
2022-12-12T02:41:39.324Z,101064.66
2022-12-12T02:44:20.295Z,101069.72
2022-12-12T02:46:55.886Z,101063.81
2022-12-12T02:49:40.292Z,101079.41
2022-12-12T02:52:09.918Z,101086.44
2022-12-12T02:54:37.183Z,101082.09
2022-12-12T02:57:09.602Z,101082.38
2022-12-12T02:59:40.319Z,101082.50
2022-12-12T03:02:25.381Z,101086.00
2022-12-12T03:05:48.258Z,101080.81
2022-12-12T03:08:43.779Z,101084.19
2022-12-12T03:11:22.360Z,101083.34
2022-12-12T03:14:03.265Z,101079.81
2022-12-12T03:16:43.756Z,101080.69
2022-12-12T03:19:19.218Z,101082.66
2022-12-12T03:21:56.877Z,101083.22
2022-12-12T03:24:32.641Z,101075.63
2022-12-12T03:27:04.658Z,101082.06
2022-12-12T03:29:49.821Z,101079.94
2022-12-12T03:32:26.663Z,101085.13
2022-12-12T03:35:02.953Z,101078.50
2022-12-12T03:37:37.663Z,101075.84
2022-12-12T03:40:10.307Z,101081.47
2022-12-12T03:42:45.905Z,101082.53
2022-12-12T03:45:20.346Z,101080.84
2022-12-12T03:47:55.736Z,101089.56
2022-12-12T03:50:26.505Z,101089.69
2022-12-12T03:53:11.440Z,101095.03
2022-12-12T03:55:50.199Z,101092.75
2022-12-12T03:58:33.833Z,101099.47
2022-12-12T04:01:04.484Z,101096.38
2022-12-12T04:03:49.393Z,101093.13
2022-12-12T04:06:34.732Z,101107.94
2022-12-12T04:09:23.896Z,101101.78
2022-12-12T04:12:28.984Z,101108.00
2022-12-12T04:15:47.560Z,101105.19
2022-12-12T04:18:28.880Z,101114.41
2022-12-12T04:21:43.500Z,101111.03
2022-12-12T04:24:30.263Z,101107.53
2022-12-12T04:27:09.272Z,101111.59
2022-12-12T04:29:41.200Z,101104.72
2022-12-12T04:32:49.083Z,101105.75
2022-12-12T04:35:21.560Z,101105.06
2022-12-12T04:37:59.030Z,101104.63
2022-12-12T04:40:29.832Z,101108.84
2022-12-12T04:43:00.814Z,101096.38
2022-12-12T04:45:38.628Z,101096.69
2022-12-12T04:48:07.928Z,101106.66
2022-12-12T04:50:35.835Z,101107.78
2022-12-12T04:53:07.440Z,101103.19
2022-12-12T04:55:42.295Z,101109.22
2022-12-12T04:58:09.554Z,101102.44
2022-12-12T05:00:57.265Z,101099.69
2022-12-12T05:04:00.907Z,101105.50
2022-12-12T05:06:41.749Z,101106.94
2022-12-12T05:09:08.771Z,101101.28
2022-12-12T05:11:35.485Z,101102.41
2022-12-12T05:14:02.117Z,101098.03
2022-12-12T05:16:47.993Z,101105.69
2022-12-12T05:19:14.839Z,101106.19
2022-12-12T05:21:41.437Z,101113.69
2022-12-12T05:24:08.322Z,101104.16
2022-12-12T05:26:35.839Z,101105.25
2022-12-12T05:29:07.163Z,101106.09
2022-12-12T05:31:34.174Z,101111.94
2022-12-12T05:34:00.806Z,101113.59
2022-12-12T05:36:27.357Z,101109.78
2022-12-12T05:38:53.986Z,101112.78
2022-12-12T05:41:20.617Z,101120.28
2022-12-12T05:43:47.281Z,101122.19
2022-12-12T05:46:13.955Z,101125.59
2022-12-12T05:48:40.530Z,101125.25
2022-12-12T05:51:07.207Z,101122.94
2022-12-12T05:53:42.029Z,101128.84
2022-12-12T05:56:11.458Z,101129.69
2022-12-12T05:58:39.178Z,101125.09
2022-12-12T06:01:06.443Z,101130.63
2022-12-12T06:03:33.393Z,101130.63
2022-12-12T06:06:00.534Z,101132.13
2022-12-12T06:08:27.115Z,101123.66
2022-12-12T06:10:54.386Z,101135.97
2022-12-12T06:13:20.870Z,101136.09
2022-12-12T06:15:47.453Z,101128.50
2022-12-12T06:18:14.011Z,101129.94
2022-12-12T06:20:40.547Z,101139.13
2022-12-12T06:23:07.810Z,101139.97
2022-12-12T06:25:34.436Z,101137.19
2022-12-12T06:28:01.099Z,101136.94
2022-12-12T06:30:27.824Z,101145.53
2022-12-12T06:32:54.385Z,101137.66
2022-12-12T06:35:20.918Z,101141.31
2022-12-12T06:37:48.569Z,101135.03
2022-12-12T06:40:16.501Z,101139.94
2022-12-12T06:42:47.882Z,101142.25
2022-12-12T06:45:15.734Z,101138.75
2022-12-12T06:47:42.579Z,101148.03
2022-12-12T06:50:09.263Z,101147.25
2022-12-12T06:52:36.646Z,101159.44
2022-12-12T06:55:03.568Z,101152.56
2022-12-12T06:57:30.138Z,101153.47
2022-12-12T06:59:56.671Z,101152.72
2022-12-12T07:02:29.298Z,101154.09
2022-12-12T07:04:56.862Z,101159.41
2022-12-12T07:07:23.478Z,101166.16
2022-12-12T07:09:50.017Z,101171.97
2022-12-12T07:12:16.561Z,101170.03
2022-12-12T07:14:43.024Z,101167.25
2022-12-12T07:17:09.574Z,101168.72
2022-12-12T07:19:36.110Z,101170.75
2022-12-12T07:22:09.026Z,101179.03
2022-12-12T07:24:36.564Z,101181.94
2022-12-12T07:27:03.476Z,101183.09
2022-12-12T07:29:30.004Z,101186.50
2022-12-12T07:31:56.543Z,101182.53
2022-12-12T07:34:23.141Z,101191.91
2022-12-12T07:36:49.706Z,101178.09
2022-12-12T07:39:20.711Z,101177.13
2022-12-12T07:41:48.347Z,101178.72
2022-12-12T07:44:16.429Z,101173.28
2022-12-12T07:46:43.108Z,101179.78
2022-12-12T07:49:10.099Z,101177.13
2022-12-12T07:51:40.986Z,101178.09
2022-12-12T07:54:44.550Z,101174.41
2022-12-12T07:57:11.158Z,101173.03
2022-12-12T07:59:38.100Z,101181.63
2022-12-12T08:02:04.699Z,101183.63
2022-12-12T08:04:31.658Z,101187.16
2022-12-12T08:07:03.980Z,101185.03
2022-12-12T08:09:33.499Z,101187.16
2022-12-12T08:12:00.186Z,101188.00
2022-12-12T08:14:27.015Z,101188.00
2022-12-12T08:16:53.567Z,101189.72
2022-12-12T08:19:20.227Z,101185.75
2022-12-12T08:21:47.267Z,101193.25
2022-12-12T08:24:15.713Z,101200.31
2022-12-12T08:26:44.072Z,101196.91
2022-12-12T08:29:11.807Z,101196.81
2022-12-12T08:31:39.546Z,101193.31
2022-12-12T08:34:06.237Z,101200.56
2022-12-12T08:36:35.087Z,101207.38
2022-12-12T08:39:10.234Z,101195.19
2022-12-12T08:41:39.746Z,101212.38
2022-12-12T08:44:07.853Z,101199.22
2022-12-12T08:46:34.986Z,101195.34
2022-12-12T08:49:01.565Z,101198.72
2022-12-12T08:51:28.156Z,101206.69
2022-12-12T08:53:54.788Z,101206.81
2022-12-12T08:56:23.107Z,101215.03
2022-12-12T08:58:50.007Z,101217.34
2022-12-12T09:01:20.117Z,101217.44
2022-12-12T09:03:47.950Z,101216.72
2022-12-12T09:06:15.361Z,101213.00
2022-12-12T09:08:42.506Z,101214.78
2022-12-12T09:11:10.135Z,101222.41
2022-12-12T09:13:37.452Z,101221.97
2022-12-12T09:16:05.943Z,101223.31
2022-12-12T09:18:32.892Z,101227.06
2022-12-12T09:20:59.480Z,101235.41
2022-12-12T09:23:27.544Z,101236.03
2022-12-12T09:25:54.907Z,101221.81
2022-12-12T09:28:23.596Z,101224.47
2022-12-12T09:30:50.559Z,101217.97
2022-12-12T09:33:18.350Z,101220.88
2022-12-12T09:35:45.146Z,101219.69
2022-12-12T09:38:14.525Z,101217.53
2022-12-12T09:41:02.511Z,101218.72
2022-12-12T09:43:33.653Z,101222.84
2022-12-12T09:46:02.573Z,101226.47
2022-12-12T09:48:45.055Z,101218.75
2022-12-12T09:51:12.770Z,101227.38
2022-12-12T09:53:41.951Z,101216.97
2022-12-12T09:56:44.395Z,101228.22
2022-12-12T09:59:16.819Z,101224.72
2022-12-12T10:02:20.865Z,101214.75
2022-12-12T10:05:19.563Z,101215.81
2022-12-12T10:08:09.172Z,101226.94
2022-12-12T10:10:41.311Z,101219.09
2022-12-12T10:13:15.862Z,101217.25
2022-12-12T10:15:51.016Z,101212.69
2022-12-12T10:18:25.825Z,101224.41
2022-12-12T10:20:56.772Z,101222.06
2022-12-12T10:23:37.885Z,101223.16
2022-12-12T10:26:11.892Z,101221.66
2022-12-12T10:28:38.544Z,101223.97
2022-12-12T10:31:17.794Z,101211.84
2022-12-12T10:33:59.011Z,101211.22
2022-12-12T10:36:44.131Z,101210.72
2022-12-12T10:39:19.362Z,101216.38
2022-12-12T10:41:49.603Z,101221.19
2022-12-12T10:44:42.872Z,101212.56
2022-12-12T10:47:12.975Z,101210.47
2022-12-12T10:49:40.396Z,101215.28
2022-12-12T10:52:19.145Z,101218.41
2022-12-12T10:54:50.992Z,101217.75
2022-12-12T10:57:24.672Z,101204.91
2022-12-12T10:59:56.236Z,101194.31
2022-12-12T11:02:34.631Z,101196.47
2022-12-12T11:05:07.354Z,101202.09
2022-12-12T11:07:39.472Z,101201.44
2022-12-12T11:10:26.828Z,101191.81
2022-12-12T11:13:00.166Z,101190.41
2022-12-12T11:15:40.591Z,101193.13
2022-12-12T11:18:15.496Z,101201.44
2022-12-12T11:20:46.719Z,101194.56
2022-12-12T11:23:23.820Z,101188.84
2022-12-12T11:25:59.964Z,101191.13
2022-12-12T11:28:31.323Z,101183.81
2022-12-12T11:31:01.263Z,101185.22
2022-12-12T11:33:42.408Z,101188.19
2022-12-12T11:36:15.414Z,101190.44
2022-12-12T11:38:48.947Z,101189.91
2022-12-12T11:41:15.775Z,101191.84
2022-12-12T11:43:48.299Z,101190.47
2022-12-12T11:46:14.876Z,101182.47
2022-12-12T11:48:44.214Z,101187.50
2022-12-12T11:51:11.599Z,101182.03
2022-12-12T11:53:40.645Z,101178.41
2022-12-12T11:56:24.062Z,101179.09
2022-12-12T11:58:55.072Z,101181.06
2022-12-12T12:01:52.013Z,101176.69
2022-12-12T12:04:27.256Z,101177.13
2022-12-12T12:07:12.227Z,101180.50
2022-12-12T12:10:10.926Z,101174.47
2022-12-12T12:12:56.252Z,101175.31
2022-12-12T12:16:07.383Z,101181.50
2022-12-12T12:19:00.329Z,101185.69
2022-12-12T12:21:47.668Z,101179.25
2022-12-12T12:25:02.207Z,101173.91
2022-12-12T12:27:43.017Z,101179.97
2022-12-12T12:30:22.801Z,101177.28
2022-12-12T12:33:15.347Z,101183.59
2022-12-12T12:36:04.266Z,101177.56
2022-12-12T12:39:01.084Z,101180.78
2022-12-12T12:41:33.733Z,101168.44
2022-12-12T12:44:16.871Z,101174.75
2022-12-12T12:47:09.765Z,101171.25
2022-12-12T12:49:47.015Z,101168.59
2022-12-12T12:52:19.997Z,101168.59
2022-12-12T12:54:49.004Z,101163.41
2022-12-12T12:57:30.396Z,101168.44
2022-12-12T13:00:06.356Z,101163.25
2022-12-12T13:02:51.160Z,101162.41
2022-12-12T13:05:27.445Z,101159.03
2022-12-12T13:08:27.027Z,101160.31
2022-12-12T13:10:58.785Z,101162.97
2022-12-12T13:13:35.079Z,101159.03
2022-12-12T13:16:07.752Z,101162.00
2022-12-12T13:18:45.025Z,101156.50
2022-12-12T13:21:35.787Z,101164.94
2022-12-12T13:24:14.010Z,101154.00
2022-12-12T13:27:20.262Z,101164.66
2022-12-12T13:30:05.011Z,101168.88
2022-12-12T13:33:08.990Z,101166.06
2022-12-12T13:35:46.050Z,101171.97
2022-12-12T13:38:26.567Z,101174.19
2022-12-12T13:41:01.849Z,101169.16
2022-12-12T13:43:40.386Z,101176.59
2022-12-12T13:46:23.584Z,101175.06
2022-12-12T13:49:23.455Z,101179.69
2022-12-12T13:51:49.984Z,101180.69
2022-12-12T13:54:19.198Z,101186.84
2022-12-12T13:57:11.980Z,101185.88
2022-12-12T13:59:53.627Z,101182.63
2022-12-12T14:02:31.401Z,101188.94
2022-12-12T14:05:12.256Z,101182.94
2022-12-12T14:07:47.270Z,101178.00
2022-12-12T14:10:48.107Z,101180.81
2022-12-12T14:13:31.070Z,101187.00
2022-12-12T14:15:57.575Z,101190.22
2022-12-12T14:18:30.075Z,101185.69
2022-12-12T14:21:02.605Z,101185.03
2022-12-12T14:23:33.911Z,101185.72
2022-12-12T14:26:01.248Z,101183.44
2022-12-12T14:28:29.101Z,101177.25
2022-12-12T14:31:09.033Z,101178.50
2022-12-12T14:33:35.552Z,101174.97
2022-12-12T14:36:08.738Z,101172.88
2022-12-12T14:38:52.817Z,101185.34
2022-12-12T14:41:31.438Z,101175.38
2022-12-12T14:44:37.462Z,101180.25
2022-12-12T14:46:48.652Z,101177.03
2022-12-12T14:49:17.216Z,101179.69
2022-12-12T14:51:47.035Z,101175.47
2022-12-12T14:54:23.663Z,101185.69
2022-12-12T14:56:53.441Z,101186.94
2022-12-12T14:59:26.910Z,101190.13
2022-12-12T15:02:10.771Z,101197.00
2022-12-12T15:04:39.673Z,101191.22
2022-12-12T15:07:21.451Z,101190.06
2022-12-12T15:09:49.199Z,101192.19
2022-12-12T15:12:22.578Z,101188.81
2022-12-12T15:14:49.285Z,101198.19
2022-12-12T15:17:18.197Z,101192.28
2022-12-12T15:19:48.090Z,101192.41
2022-12-12T15:22:23.813Z,101201.88
2022-12-12T15:24:51.400Z,101195.16
2022-12-12T15:27:29.892Z,101198.22
2022-12-12T15:29:58.577Z,101200.44
2022-12-12T15:32:27.533Z,101200.16
2022-12-12T15:35:04.762Z,101207.84
2022-12-12T15:37:33.344Z,101205.41
2022-12-12T15:40:12.314Z,101204.00
2022-12-12T15:42:42.820Z,101216.19
2022-12-12T15:45:18.398Z,101206.72
2022-12-12T15:47:45.219Z,101208.91
2022-12-12T15:50:33.825Z,101217.28
2022-12-12T15:53:04.732Z,101218.06
2022-12-12T15:55:32.885Z,101220.78
2022-12-12T15:57:59.951Z,101220.78
2022-12-12T16:00:30.379Z,101224.25
2022-12-12T16:03:06.922Z,101216.91
2022-12-12T16:05:38.789Z,101229.94
2022-12-12T16:08:44.651Z,101224.91
2022-12-12T16:11:31.861Z,101223.19
2022-12-12T16:13:59.487Z,101224.91
2022-12-12T16:16:36.057Z,101232.28
2022-12-12T16:19:04.286Z,101224.69
2022-12-12T16:21:31.366Z,101215.72
2022-12-12T16:24:18.585Z,101218.38
2022-12-12T16:26:45.357Z,101226.63
2022-12-12T16:29:11.930Z,101219.00
2022-12-12T16:31:38.538Z,101221.09
2022-12-12T16:34:05.496Z,101223.28
2022-12-12T16:36:39.915Z,101223.19
2022-12-12T16:39:09.745Z,101212.56
2022-12-12T16:41:36.693Z,101223.28
2022-12-12T16:44:03.253Z,101216.16
2022-12-12T16:46:29.803Z,101214.03
2022-12-12T16:49:03.340Z,101222.75
2022-12-12T16:51:32.724Z,101221.94
2022-12-12T16:53:59.922Z,101229.50
2022-12-12T16:56:26.758Z,101232.16
2022-12-12T16:58:53.463Z,101221.78
2022-12-12T17:01:21.074Z,101219.13
2022-12-12T17:03:47.703Z,101222.75
2022-12-12T17:06:14.295Z,101224.50
2022-12-12T17:08:40.867Z,101216.38
2022-12-12T17:11:10.661Z,101219.50
2022-12-12T17:13:41.588Z,101218.34
2022-12-12T17:16:08.078Z,101217.28
2022-12-12T17:18:34.763Z,101222.28
2022-12-12T17:21:01.258Z,101214.41
2022-12-12T17:23:27.874Z,101218.06
2022-12-12T17:26:00.747Z,101209.34
2022-12-12T17:28:31.057Z,101208.16
2022-12-12T17:30:57.657Z,101213.50
2022-12-12T17:33:24.255Z,101214.25
2022-12-12T17:36:02.469Z,101215.72
2022-12-12T17:38:30.489Z,101217.81
2022-12-12T17:40:57.620Z,101212.22
2022-12-12T17:43:25.588Z,101215.97
2022-12-12T17:46:06.620Z,101217.34
2022-12-12T17:48:35.103Z,101210.47
2022-12-12T17:51:05.943Z,101215.41
2022-12-12T17:53:38.535Z,101216.91
2022-12-12T17:56:10.048Z,101215.09
2022-12-12T17:58:38.506Z,101221.00
2022-12-12T18:01:15.675Z,101213.03
2022-12-12T18:03:43.466Z,101211.25
2022-12-12T18:06:11.306Z,101217.53
2022-12-12T18:08:38.320Z,101221.28
2022-12-12T18:11:14.901Z,101218.97
2022-12-12T18:13:42.134Z,101224.56
2022-12-12T18:16:12.075Z,101234.47
2022-12-12T18:18:39.054Z,101226.50
2022-12-12T18:21:08.135Z,101222.66
2022-12-12T18:23:34.726Z,101224.22
2022-12-12T18:26:06.385Z,101217.00
2022-12-12T18:28:33.444Z,101220.72
2022-12-12T18:30:59.994Z,101218.31
2022-12-12T18:33:26.532Z,101224.09
2022-12-12T18:36:03.967Z,101215.66
2022-12-12T18:38:31.628Z,101215.28
2022-12-12T18:40:58.382Z,101214.94
2022-12-12T18:43:26.531Z,101209.47
2022-12-12T18:45:54.353Z,101200.91
2022-12-12T18:48:21.339Z,101209.88
2022-12-12T18:50:48.070Z,101214.91
2022-12-12T18:53:14.736Z,101209.13
2022-12-12T18:55:42.930Z,101206.81
2022-12-12T18:58:11.125Z,101203.66
2022-12-12T19:00:40.224Z,101197.88
2022-12-12T19:03:07.860Z,101207.16
2022-12-12T19:05:40.522Z,101213.22
2022-12-12T19:08:07.408Z,101211.50
2022-12-12T19:10:35.584Z,101219.94
2022-12-12T19:13:02.257Z,101210.88
2022-12-12T19:15:28.861Z,101213.41
2022-12-12T19:17:56.178Z,101216.44
2022-12-12T19:20:24.468Z,101219.91
2022-12-12T19:22:51.549Z,101215.56
2022-12-12T19:25:18.738Z,101225.47
2022-12-12T19:27:45.485Z,101226.19
2022-12-12T19:30:13.324Z,101234.50
2022-12-12T19:32:40.192Z,101226.66
2022-12-12T19:35:07.442Z,101228.69
2022-12-12T19:37:36.084Z,101234.47
2022-12-12T19:40:02.709Z,101229.50
2022-12-12T19:42:29.233Z,101225.38
2022-12-12T19:44:55.755Z,101230.47
2022-12-12T19:47:22.311Z,101222.97
2022-12-12T19:49:49.554Z,101222.72
2022-12-12T19:52:16.487Z,101225.63
2022-12-12T19:54:43.018Z,101226.06
2022-12-12T19:57:09.724Z,101217.50
2022-12-12T19:59:36.384Z,101217.72
2022-12-12T20:02:05.456Z,101219.44
2022-12-12T20:04:32.658Z,101216.78
2022-12-12T20:06:59.423Z,101222.41
2022-12-12T20:09:28.964Z,101209.22
2022-12-12T20:11:57.454Z,101217.44
2022-12-12T20:14:26.861Z,101222.03
2022-12-12T20:16:54.216Z,101215.34
2022-12-12T20:19:22.389Z,101211.69
2022-12-12T20:22:05.926Z,101218.94
2022-12-12T20:24:33.907Z,101210.22
2022-12-12T20:27:03.185Z,101211.81
2022-12-12T20:29:29.947Z,101212.66
2022-12-12T20:31:56.486Z,101211.09
2022-12-12T20:34:24.912Z,101209.00
2022-12-12T20:36:52.221Z,101209.00
2022-12-12T20:39:20.945Z,101215.03
2022-12-12T20:41:48.582Z,101225.97
2022-12-12T20:44:15.816Z,101226.81
2022-12-12T20:46:45.408Z,101227.56
2022-12-12T20:49:18.053Z,101225.75
2022-12-12T20:51:55.219Z,101224.66
2022-12-12T20:54:24.530Z,101226.38
2022-12-12T20:56:52.287Z,101218.19
2022-12-12T20:59:18.867Z,101221.69
2022-12-12T21:01:47.307Z,101225.06
2022-12-12T21:04:14.444Z,101225.06
2022-12-12T21:06:44.496Z,101234.31
2022-12-12T21:09:16.248Z,101228.72
2022-12-12T21:11:44.464Z,101224.72
2022-12-12T21:14:10.992Z,101217.09
2022-12-12T21:16:39.702Z,101216.00
2022-12-12T21:19:09.640Z,101215.31
2022-12-12T21:21:36.765Z,101220.63
2022-12-12T21:24:03.498Z,101215.53
2022-12-12T21:26:31.511Z,101220.13
2022-12-12T21:29:02.021Z,101214.50
2022-12-12T21:31:35.128Z,101223.84
2022-12-12T21:34:02.019Z,101236.44
2022-12-12T21:36:29.852Z,101243.63
2022-12-12T21:39:08.808Z,101240.97
2022-12-12T21:41:35.413Z,101233.78
2022-12-12T21:44:02.091Z,101231.66
2022-12-12T21:46:29.854Z,101227.09
2022-12-12T21:49:16.172Z,101236.22
2022-12-12T21:51:43.219Z,101238.13
2022-12-12T21:54:11.754Z,101238.34
2022-12-12T21:56:39.373Z,101236.03
2022-12-12T21:59:06.976Z,101244.94
2022-12-12T22:01:34.168Z,101244.72
2022-12-12T22:04:01.243Z,101243.47
2022-12-12T22:06:35.947Z,101238.91
2022-12-12T22:09:05.371Z,101238.78
2022-12-12T22:11:41.741Z,101233.94
2022-12-12T22:14:18.165Z,101237.41
2022-12-12T22:16:45.630Z,101244.28
2022-12-12T22:19:14.089Z,101234.44
2022-12-12T22:21:40.776Z,101240.28
2022-12-12T22:24:07.921Z,101228.91
2022-12-12T22:26:39.547Z,101228.63
2022-12-12T22:29:18.106Z,101228.84
2022-12-12T22:31:45.300Z,101230.75
2022-12-12T22:34:16.144Z,101230.75
2022-12-12T22:36:44.295Z,101223.00
2022-12-12T22:39:25.255Z,101224.31
2022-12-12T22:41:52.901Z,101221.31
2022-12-12T22:44:21.303Z,101214.53
2022-12-12T22:46:49.810Z,101219.13
2022-12-12T22:49:20.108Z,101218.66
2022-12-12T22:51:47.749Z,101219.19
2022-12-12T22:54:14.489Z,101214.88
2022-12-12T22:56:41.664Z,101204.28
2022-12-12T22:59:10.639Z,101208.06
2022-12-12T23:01:37.358Z,101207.13
2022-12-12T23:04:04.071Z,101212.22
2022-12-12T23:06:34.581Z,101204.16
2022-12-12T23:09:14.275Z,101197.81
2022-12-12T23:11:41.172Z,101196.50
2022-12-12T23:14:11.302Z,101193.97
2022-12-12T23:16:37.868Z,101197.56
2022-12-12T23:19:05.950Z,101195.88
2022-12-12T23:21:33.667Z,101205.75
2022-12-12T23:24:00.189Z,101210.72
2022-12-12T23:26:30.017Z,101201.31
2022-12-12T23:29:00.260Z,101204.94
2022-12-12T23:31:30.004Z,101207.59
2022-12-12T23:34:01.570Z,101210.97
2022-12-12T23:36:28.626Z,101208.72
2022-12-12T23:38:56.862Z,101208.63
2022-12-12T23:41:24.204Z,101207.88
2022-12-12T23:44:28.152Z,101198.13
2022-12-12T23:46:54.842Z,101196.25
2022-12-12T23:49:24.492Z,101187.13
2022-12-12T23:51:53.771Z,101188.81
2022-12-12T23:54:23.412Z,101199.59
2022-12-12T23:56:50.864Z,101201.19
2022-12-12T23:59:19.318Z,101194.94
